Time;durP1;ratioP1;P1;durP2;ratioP2;P2;SDS_P1;SDS_P2;PMS_P1;PMS_P2;Temp;Humidity;BMP_temperature;BMP_pressure;BME280_temperature;BME280_humidity;BME280_pressure;Samples;Min_cycle;Max_cycle;Signal;HPM_P1;HPM_P2
2022/03/25 00:00:51;;;;;;;14.05;9.07;;;;;;;9.69;55.22;101275.22;5009719;28;104852;-50
2022/03/25 00:03:21;;;;;;;13.32;9.52;;;;;;;9.69;55.36;101275.22;5014251;28;102447;-48
2022/03/25 00:05:49;;;;;;;11.55;9.27;;;;;;;9.70;55.38;101276.88;5006196;28;102565;-49
2022/03/25 00:08:16;;;;;;;12.35;8.82;;;;;;;9.70;56.21;101276.88;4994167;28;102450;-49
2022/03/25 00:10:54;;;;;;;11.57;8.20;;;;;;;9.69;55.66;101280.66;4992723;28;103991;-48
2022/03/25 00:13:21;;;;;;;12.38;9.27;;;;;;;9.70;55.44;101276.03;4994022;28;102993;-50
2022/03/25 00:15:50;;;;;;;12.55;9.23;;;;;;;9.68;55.71;101268.16;4993370;28;102561;-48
2022/03/25 00:18:17;;;;;;;12.20;8.80;;;;;;;9.69;55.42;101267.06;4994347;28;102371;-48
2022/03/25 00:20:55;;;;;;;15.18;8.90;;;;;;;9.69;55.89;101269.78;4992914;28;103787;-49
2022/03/25 00:23:22;;;;;;;13.02;8.73;;;;;;;9.69;56.22;101268.97;4992015;28;102990;-49
2022/03/25 00:25:49;;;;;;;10.90;8.07;;;;;;;9.69;55.56;101269.78;4992224;28;102601;-49
2022/03/25 00:28:16;;;;;;;13.48;9.25;;;;;;;9.68;56.20;101268.16;4980670;28;102343;-49
2022/03/25 00:30:43;;;;;;;11.13;8.52;;;;;;;9.68;55.96;101268.16;4973338;28;103832;-48
2022/03/25 00:33:10;;;;;;;11.98;8.57;;;;;;;9.68;55.85;101268.16;4987437;28;102600;-49
2022/03/25 00:35:36;;;;;;;12.68;8.98;;;;;;;9.68;56.17;101267.34;4980601;28;102347;-48
2022/03/25 00:38:05;;;;;;;11.63;8.65;;;;;;;9.68;56.09;101267.34;4974722;28;102634;-48
2022/03/25 00:40:32;;;;;;;10.07;7.50;;;;;;;9.67;55.67;101263.78;4992972;28;104307;-48
2022/03/25 00:42:58;;;;;;;12.23;8.63;;;;;;;9.67;55.95;101261.06;4993511;28;102618;-48
2022/03/25 00:45:28;;;;;;;10.73;8.30;;;;;;;9.66;55.61;101259.41;4991266;28;102768;-48
2022/03/25 00:47:55;;;;;;;12.15;7.88;;;;;;;9.67;55.75;101261.06;4975317;28;102049;-48
2022/03/25 00:50:23;;;;;;;11.77;8.45;;;;;;;9.66;56.44;101253.97;4972825;28;104086;-48
2022/03/25 00:52:50;;;;;;;11.60;8.15;;;;;;;9.66;55.80;101253.97;4989701;28;102406;-48
2022/03/25 00:55:19;;;;;;;10.10;8.07;;;;;;;9.66;56.27;101256.69;4975452;28;101993;-48
2022/03/25 00:57:48;;;;;;;10.18;7.90;;;;;;;9.66;55.75;101256.69;5005096;28;102126;-48
2022/03/25 01:00:14;;;;;;;12.07;7.85;;;;;;;9.66;56.50;101253.97;4987300;28;103820;-49
2022/03/25 01:02:41;;;;;;;12.88;8.13;;;;;;;9.66;55.83;101248.53;4995061;28;102095;-49
2022/03/25 01:05:08;;;;;;;11.45;8.20;;;;;;;9.66;55.92;101251.25;4988287;28;102747;-48
2022/03/25 01:07:35;;;;;;;10.10;8.13;;;;;;;9.66;55.83;101248.53;4982481;28;102300;-49
2022/03/25 01:10:03;;;;;;;10.65;7.85;;;;;;;9.66;56.36;101253.97;4978486;28;103739;-49
2022/03/25 01:12:41;;;;;;;9.95;7.65;;;;;;;9.67;55.85;101244.78;4992438;28;102625;-48
2022/03/25 01:15:09;;;;;;;10.80;7.70;;;;;;;9.66;56.22;101242.28;4991975;28;102523;-49
2022/03/25 01:17:36;;;;;;;10.85;7.68;;;;;;;9.66;55.81;101253.16;4976458;28;102235;-48
2022/03/25 01:20:04;;;;;;;10.98;8.05;;;;;;;9.67;56.38;101244.78;4982302;28;103997;-48
2022/03/25 01:22:31;;;;;;;10.98;8.18;;;;;;;9.66;56.37;101245.81;4973494;28;102308;-48
2022/03/25 01:24:58;;;;;;;10.15;7.63;;;;;;;9.65;56.16;101238.75;4974061;28;102534;-48
2022/03/25 01:27:26;;;;;;;10.18;7.88;;;;;;;9.67;56.52;101249.38;4990677;28;102401;-48
2022/03/25 01:29:54;;;;;;;8.77;7.05;;;;;;;9.66;56.21;101245.81;4982660;28;103643;-48
2022/03/25 01:32:24;;;;;;;10.23;7.68;;;;;;;9.66;56.64;101248.53;4985764;28;102578;-48
2022/03/25 01:34:51;;;;;;;9.63;7.38;;;;;;;9.66;55.69;101243.09;4972817;28;101932;-48
2022/03/25 01:37:18;;;;;;;10.52;7.47;;;;;;;9.67;56.16;101247.50;4991964;28;102236;-49
2022/03/25 01:39:46;;;;;;;8.57;7.03;;;;;;;9.67;56.65;101233.09;4991262;28;104062;-49
2022/03/25 01:42:12;;;;;;;10.38;7.38;;;;;;;9.67;55.76;101227.66;4992264;28;102350;-49
2022/03/25 01:44:39;;;;;;;12.18;8.07;;;;;;;9.67;56.25;101231.19;5006360;28;102276;-49
2022/03/25 01:47:11;;;;;;;9.25;7.47;;;;;;;9.68;55.73;101242.88;5001541;28;104691;-49
2022/03/25 01:49:38;;;;;;;9.43;7.30;;;;;;;9.67;56.39;101239.34;4991985;28;103933;-49
2022/03/25 01:52:06;;;;;;;11.02;7.95;;;;;;;9.67;56.15;101244.78;4991470;28;102041;-49
2022/03/25 01:54:34;;;;;;;7.90;6.97;;;;;;;9.67;56.10;101244.78;4991950;28;102222;-49
2022/03/25 01:57:05;;;;;;;9.57;7.45;;;;;;;9.68;56.01;101251.03;4982014;28;102242;-48
2022/03/25 01:59:32;;;;;;;9.40;7.20;;;;;;;9.68;56.42;101251.03;4977934;28;103874;-49
2022/03/25 02:02:01;;;;;;;9.90;7.60;;;;;;;9.66;55.91;101240.38;4991575;28;102623;-49
2022/03/25 02:04:30;;;;;;;10.43;7.88;;;;;;;9.68;56.76;101245.59;4992769;28;102285;-48
2022/03/25 02:06:58;;;;;;;10.85;7.13;;;;;;;9.68;56.52;101251.84;4980633;28;102463;-49
2022/03/25 02:09:25;;;;;;;10.77;7.70;;;;;;;9.68;56.67;101246.41;4990991;28;103888;-48
2022/03/25 02:11:52;;;;;;;10.43;8.05;;;;;;;9.68;56.33;101249.13;4991627;28;102014;-48
2022/03/25 02:14:19;;;;;;;11.07;7.82;;;;;;;9.68;56.26;101245.59;4992151;28;101876;-48
2022/03/25 02:16:48;;;;;;;10.18;7.88;;;;;;;9.68;56.14;101245.59;4993087;28;102378;-48
2022/03/25 02:19:19;;;;;;;8.88;6.88;;;;;;;9.68;56.06;101234.72;4991732;28;103906;-48
2022/03/25 02:21:49;;;;;;;10.20;8.20;;;;;;;9.67;56.54;101233.09;4976953;28;102439;-49
2022/03/25 02:24:16;;;;;;;9.32;7.47;;;;;;;9.68;56.76;101235.53;4971922;28;101793;-49
2022/03/25 02:26:44;;;;;;;9.05;7.20;;;;;;;9.68;56.74;101234.72;4988751;28;102509;-49
2022/03/25 02:29:14;;;;;;;11.65;7.00;;;;;;;9.67;56.61;101239.34;4986910;28;104120;-49
2022/03/25 02:31:41;;;;;;;9.90;7.45;;;;;;;9.69;56.01;101249.94;4990709;28;102350;-49
2022/03/25 02:34:10;;;;;;;8.88;6.90;;;;;;;9.67;56.93;101244.78;4991549;28;101945;-49
2022/03/25 02:36:38;;;;;;;9.85;6.88;;;;;;;9.67;56.18;101247.50;4992943;28;102108;-49
2022/03/25 02:39:07;;;;;;;12.48;7.65;;;;;;;9.68;55.93;101254.56;4990949;28;104026;-49
2022/03/25 02:41:36;;;;;;;8.30;7.10;;;;;;;9.68;56.40;101243.69;4992082;28;102318;-50
2022/03/25 02:44:02;;;;;;;9.80;7.32;;;;;;;9.68;56.59;101251.03;4991222;28;102535;-48
2022/03/25 02:46:30;;;;;;;9.48;7.63;;;;;;;9.68;56.53;101248.31;4990285;28;102811;-49
2022/03/25 02:48:57;;;;;;;10.20;7.55;;;;;;;9.67;56.35;101244.78;4990126;28;103801;-49
2022/03/25 02:51:23;;;;;;;10.23;7.32;;;;;;;9.68;56.08;101251.84;4990908;28;102361;-49
2022/03/25 02:53:50;;;;;;;10.77;7.72;;;;;;;9.67;56.62;101261.06;4990553;28;101961;-50
2022/03/25 02:56:19;;;;;;;10.40;7.25;;;;;;;9.67;56.62;101261.06;4992399;28;102167;-48
2022/03/25 02:58:46;;;;;;;10.37;7.40;;;;;;;9.68;56.28;101251.84;4991217;28;104518;-49
2022/03/25 03:01:13;;;;;;;8.88;6.93;;;;;;;9.68;56.96;101259.19;4992007;28;102286;-49
2022/03/25 03:03:41;;;;;;;9.82;7.57;;;;;;;9.66;56.58;101251.25;4991124;28;101823;-50
2022/03/25 03:06:07;;;;;;;9.18;6.93;;;;;;;9.67;57.10;101261.06;4992020;28;102371;-48
2022/03/25 03:08:35;;;;;;;10.55;7.45;;;;;;;9.68;56.40;101260.00;4989545;28;104004;-49
2022/03/25 03:11:07;;;;;;;8.90;7.07;;;;;;;9.67;56.62;101261.06;4989980;28;102471;-49
2022/03/25 03:13:35;;;;;;;8.85;7.03;;;;;;;9.68;56.89;101261.91;4990445;28;101866;-49
2022/03/25 03:16:03;;;;;;;10.10;7.10;;;;;;;9.67;57.04;101261.06;4979996;28;102622;-48
2022/03/25 03:18:30;;;;;;;8.70;7.07;;;;;;;9.67;56.99;101254.81;4984806;28;103399;-49
2022/03/25 03:20:58;;;;;;;8.48;6.78;;;;;;;9.67;56.58;101255.66;4977423;28;101998;-48
2022/03/25 03:23:25;;;;;;;10.23;7.53;;;;;;;9.67;57.04;101255.66;4971181;28;102386;-49
2022/03/25 03:25:51;;;;;;;10.05;7.47;;;;;;;9.68;56.91;101257.28;4984023;28;102155;-48
2022/03/25 03:28:18;;;;;;;9.27;7.60;;;;;;;9.67;56.28;101250.22;4983328;28;104022;-49
2022/03/25 03:30:46;;;;;;;9.25;7.22;;;;;;;9.68;56.97;101262.72;4984617;28;102459;-49
2022/03/25 03:33:13;;;;;;;9.90;7.55;;;;;;;9.68;56.75;101256.47;4986698;28;102349;-49
2022/03/25 03:35:40;;;;;;;9.75;7.47;;;;;;;9.66;56.70;101253.97;4984767;28;102247;-49
2022/03/25 03:38:08;;;;;;;8.90;7.05;;;;;;;9.67;56.73;101255.66;4984760;28;104028;-48
2022/03/25 03:40:35;;;;;;;10.68;7.82;;;;;;;9.66;56.73;101259.41;4978548;28;102114;-48
2022/03/25 03:43:04;;;;;;;9.40;7.05;;;;;;;9.66;56.70;101256.69;4970909;28;102336;-49
2022/03/25 03:45:34;;;;;;;9.13;7.05;;;;;;;9.66;57.27;101255.88;4972403;28;102482;-49
2022/03/25 03:48:03;;;;;;;9.45;6.60;;;;;;;9.66;56.90;101253.97;4970608;28;104161;-49
2022/03/25 03:50:30;;;;;;;8.65;7.28;;;;;;;9.67;56.84;101260.25;4975861;28;102209;-49
2022/03/25 03:52:58;;;;;;;11.00;8.38;;;;;;;9.66;57.15;101251.25;4989821;28;102210;-49
2022/03/25 03:55:25;;;;;;;9.23;7.03;;;;;;;9.66;56.82;101248.53;4991815;28;102211;-49
2022/03/25 03:57:52;;;;;;;10.60;7.82;;;;;;;9.66;57.19;101234.94;4971451;28;103863;-49
2022/03/25 04:00:20;;;;;;;9.50;7.18;;;;;;;9.67;57.45;101231.19;4981255;28;103015;-49
2022/03/25 04:02:47;;;;;;;10.55;7.68;;;;;;;9.67;57.02;101228.47;4970547;28;102157;-49
2022/03/25 04:05:15;;;;;;;9.02;7.65;;;;;;;9.66;56.66;101224.09;4971822;28;102396;-49
2022/03/25 04:07:43;;;;;;;8.93;7.30;;;;;;;9.66;56.92;101221.38;4970415;28;103994;-49
2022/03/25 04:10:11;;;;;;;9.73;7.38;;;;;;;9.66;56.47;101220.53;4973144;28;101959;-49
2022/03/25 04:12:38;;;;;;;9.65;7.68;;;;;;;9.66;56.77;101231.41;4989858;28;102361;-49
2022/03/25 04:15:12;;;;;;;10.35;7.28;;;;;;;9.67;57.21;101250.22;4991410;28;102682;-49
2022/03/25 04:17:44;;;;;;;8.63;7.15;;;;;;;9.67;57.30;101249.38;4989752;28;103880;-49
2022/03/25 04:20:29;;;;;;;8.90;7.20;;;;;;;9.66;56.65;101264.84;4988352;28;101938;-48
2022/03/25 04:22:55;;;;;;;7.82;6.60;;;;;;;9.67;57.25;101258.38;4989622;28;102213;-48
2022/03/25 04:25:23;;;;;;;8.82;6.88;;;;;;;9.66;56.94;101259.41;4991511;28;102232;-49
2022/03/25 04:27:52;;;;;;;8.85;6.75;;;;;;;9.66;57.38;101259.41;4992656;28;103851;-49
2022/03/25 04:30:22;;;;;;;9.55;6.65;;;;;;;9.66;56.94;101259.41;4988343;28;102417;-49
2022/03/25 04:32:49;;;;;;;8.98;7.28;;;;;;;9.67;56.78;101262.97;4992954;28;102482;-48
2022/03/25 04:35:16;;;;;;;9.60;7.35;;;;;;;9.65;56.47;101257.78;4994628;28;102224;-49
2022/03/25 04:37:44;;;;;;;9.35;6.57;;;;;;;9.66;56.90;101259.41;4992941;28;103701;-48
2022/03/25 04:40:13;;;;;;;7.80;7.00;;;;;;;9.67;57.02;101258.38;4994144;28;102322;-48
2022/03/25 04:42:40;;;;;;;8.37;6.80;;;;;;;9.66;57.09;101256.69;4992099;28;102427;-49
2022/03/25 04:45:07;;;;;;;8.43;6.28;;;;;;;9.67;57.06;101261.06;4993412;28;102123;-48
2022/03/25 04:47:34;;;;;;;8.82;6.75;;;;;;;9.66;56.40;101259.41;4992427;28;103935;-48
2022/03/25 04:50:01;;;;;;;8.32;6.55;;;;;;;9.67;57.04;101261.06;4992937;28;104584;-49
2022/03/25 04:52:27;;;;;;;9.05;6.78;;;;;;;9.65;56.63;101257.78;4993272;28;102072;-49
2022/03/25 04:54:55;;;;;;;8.52;6.95;;;;;;;9.65;56.87;101263.22;4994314;28;102454;-49
2022/03/25 04:57:22;;;;;;;9.90;7.27;;;;;;;9.68;57.12;101267.34;4978275;28;103936;-49
2022/03/25 04:59:49;;;;;;;12.02;7.10;;;;;;;9.67;57.12;101260.25;4982614;28;102334;-49
2022/03/25 05:02:16;;;;;;;8.70;6.72;;;;;;;9.66;57.30;101264.84;4991551;28;101916;-49
2022/03/25 05:04:45;;;;;;;8.32;7.05;;;;;;;9.67;56.91;101273.84;4992945;28;101898;-49
2022/03/25 05:07:15;;;;;;;9.15;6.97;;;;;;;9.67;56.77;101269.22;4972850;28;103917;-49
2022/03/25 05:09:59;;;;;;;9.85;7.50;;;;;;;9.67;56.89;101266.50;4983580;28;101814;-49
2022/03/25 05:12:27;;;;;;;8.45;7.47;;;;;;;9.67;57.41;101273.84;4981155;28;102714;-48
2022/03/25 05:14:55;;;;;;;7.93;6.95;;;;;;;9.67;56.58;101271.94;4974363;28;101969;-49
2022/03/25 05:17:22;;;;;;;8.88;7.20;;;;;;;9.67;56.74;101265.69;4972259;28;105034;-49
2022/03/25 05:19:49;;;;;;;8.15;6.80;;;;;;;9.67;57.00;101271.13;4983099;28;101993;-49
2022/03/25 05:22:19;;;;;;;8.55;7.10;;;;;;;9.67;56.98;101273.84;4973980;28;102383;-50
2022/03/25 05:24:45;;;;;;;9.52;7.18;;;;;;;9.68;56.56;101279.03;4982420;28;102085;-49
2022/03/25 05:27:13;;;;;;;8.07;6.53;;;;;;;9.67;57.07;101277.38;4975476;28;103850;-49
2022/03/25 05:29:41;;;;;;;9.82;7.90;;;;;;;9.66;57.14;101275.72;4982474;28;102482;-49
2022/03/25 05:32:08;;;;;;;9.13;7.22;;;;;;;9.67;57.36;101277.38;4986989;28;102097;-49
2022/03/25 05:34:35;;;;;;;9.13;6.47;;;;;;;9.67;57.15;101280.09;4987001;28;102738;-49
2022/03/25 05:37:01;;;;;;;9.18;6.80;;;;;;;9.68;57.45;101281.75;4980556;28;103881;-49
2022/03/25 05:39:28;;;;;;;8.20;6.63;;;;;;;9.68;57.36;101283.63;4972502;28;102640;-48
2022/03/25 05:41:55;;;;;;;9.82;7.40;;;;;;;9.68;56.67;101281.75;4991460;28;101946;-49
2022/03/25 05:44:23;;;;;;;9.48;7.53;;;;;;;9.69;57.45;101285.28;4981287;28;103931;-49
2022/03/25 05:46:50;;;;;;;9.55;7.30;;;;;;;9.69;56.62;101293.44;4989750;28;103818;-48
2022/03/25 05:49:17;;;;;;;8.95;6.88;;;;;;;9.70;56.49;101295.91;4987240;28;102544;-49
2022/03/25 05:51:43;;;;;;;8.57;7.22;;;;;;;9.70;56.96;101292.34;4989683;28;102506;-49
2022/03/25 05:54:10;;;;;;;9.27;7.22;;;;;;;9.70;57.44;101298.63;4992994;28;102240;-49
2022/03/25 05:56:39;;;;;;;9.50;6.93;;;;;;;9.71;57.31;101300.25;4982647;28;103930;-49
2022/03/25 05:59:06;;;;;;;9.18;7.30;;;;;;;9.71;56.49;101299.44;4983876;28;102530;-48
2022/03/25 06:01:34;;;;;;;9.38;7.45;;;;;;;9.72;56.95;101299.19;4991392;28;102337;-50
2022/03/25 06:04:01;;;;;;;10.77;7.72;;;;;;;9.72;57.40;101301.91;4994437;28;102437;-48
2022/03/25 06:06:28;;;;;;;9.20;7.25;;;;;;;9.72;56.54;101312.78;5003027;28;103947;-49
2022/03/25 06:08:55;;;;;;;10.32;7.45;;;;;;;9.73;56.45;101305.44;4992321;28;102132;-48
2022/03/25 06:11:22;;;;;;;11.43;8.32;;;;;;;9.72;56.91;101307.34;4998323;28;101950;-48
2022/03/25 06:13:49;;;;;;;11.57;8.52;;;;;;;9.73;57.01;101314.41;4988049;28;102570;-48
2022/03/25 06:16:17;;;;;;;11.07;8.27;;;;;;;9.73;56.85;101305.44;4988484;28;103137;-48
2022/03/25 06:18:50;;;;;;;10.07;8.30;;;;;;;9.73;56.97;101303.53;4992387;28;102133;-48
2022/03/25 06:21:17;;;;;;;10.60;7.77;;;;;;;9.73;56.58;101300.81;4993515;28;102289;-48
2022/03/25 06:24:05;;;;;;;10.93;7.75;;;;;;;9.73;56.50;101313.59;4974712;28;102110;-48
2022/03/25 06:26:31;;;;;;;8.73;6.85;;;;;;;9.73;56.41;101311.69;4973120;28;103753;-48
2022/03/25 06:28:59;;;;;;;10.25;8.05;;;;;;;9.73;56.99;101314.41;4975246;28;102364;-49
2022/03/25 06:31:26;;;;;;;10.60;7.88;;;;;;;9.73;56.79;101314.41;4992660;28;102404;-49
2022/03/25 06:33:56;;;;;;;11.80;8.43;;;;;;;9.73;57.26;101319.84;4976814;28;102428;-48
2022/03/25 06:36:22;;;;;;;10.17;8.23;;;;;;;9.74;57.08;101316.06;4980449;28;103706;-49
2022/03/25 06:38:49;;;;;;;10.25;8.27;;;;;;;9.74;56.51;101321.50;4972400;28;101903;-50
2022/03/25 06:41:16;;;;;;;10.18;7.97;;;;;;;9.74;56.64;101326.94;4972494;28;102216;-48
2022/03/25 06:43:43;;;;;;;10.35;8.00;;;;;;;9.74;56.42;101326.94;4972490;28;102117;-48
2022/03/25 06:46:11;;;;;;;9.52;8.45;;;;;;;9.74;56.41;101321.50;4971921;28;103855;-49
2022/03/25 06:48:39;;;;;;;10.87;7.80;;;;;;;9.76;57.37;101324.78;4971395;28;102446;-49
2022/03/25 06:51:08;;;;;;;10.30;7.45;;;;;;;9.75;56.59;101331.31;4971379;28;102326;-48
2022/03/25 06:53:36;;;;;;;10.98;8.45;;;;;;;9.76;56.98;101330.22;4992297;28;102621;-48
2022/03/25 06:56:04;;;;;;;9.95;8.13;;;;;;;9.76;56.90;101330.22;4987748;28;104102;-49
2022/03/25 06:58:34;;;;;;;10.37;7.90;;;;;;;9.77;56.82;101340.03;4972785;28;102482;-48
2022/03/25 07:01:01;;;;;;;10.40;8.50;;;;;;;9.78;56.57;101343.56;4991531;28;102200;-49
2022/03/25 07:03:29;;;;;;;11.18;8.10;;;;;;;9.77;56.95;101340.03;4991326;28;102542;-49
2022/03/25 07:06:00;;;;;;;12.70;9.05;;;;;;;9.78;57.05;101338.97;4978315;28;103983;-49
2022/03/25 07:08:29;;;;;;;12.70;9.13;;;;;;;9.79;56.29;101335.16;4974725;28;102008;-48
2022/03/25 07:10:59;;;;;;;12.07;9.40;;;;;;;9.78;56.34;101344.41;4991298;28;101969;-49
2022/03/25 07:13:27;;;;;;;11.37;8.80;;;;;;;9.79;57.05;101340.59;4991749;28;102226;-48
2022/03/25 07:15:54;;;;;;;8.88;7.97;;;;;;;9.79;56.37;101337.88;4989415;28;103101;-49
2022/03/25 07:18:22;;;;;;;10.50;9.02;;;;;;;9.80;56.88;101331.34;4977275;28;102075;-48
2022/03/25 07:20:48;;;;;;;12.10;9.65;;;;;;;9.79;57.20;101337.88;4987346;28;102284;-48
2022/03/25 07:23:15;;;;;;;12.18;9.98;;;;;;;9.80;56.53;101346.84;4976314;28;102256;-49
2022/03/25 07:25:45;;;;;;;11.10;9.15;;;;;;;9.79;57.12;101339.78;4989928;28;103983;-48
2022/03/25 07:28:11;;;;;;;11.10;9.18;;;;;;;9.78;56.45;101341.69;4991682;28;102896;-48
2022/03/25 07:30:39;;;;;;;10.95;8.82;;;;;;;9.80;57.03;101338.69;4979226;28;102323;-48
2022/03/25 07:33:05;;;;;;;10.73;8.63;;;;;;;9.78;57.34;101333.53;4977335;28;102288;-49
2022/03/25 07:35:32;;;;;;;13.23;9.77;;;;;;;9.80;56.90;101342.22;4999063;28;103959;-48
2022/03/25 07:38:00;;;;;;;11.30;9.50;;;;;;;9.78;57.26;101341.69;4972364;28;101960;-49
2022/03/25 07:40:27;;;;;;;12.52;9.48;;;;;;;9.79;56.40;101331.63;4975925;28;102502;-49
2022/03/25 07:42:55;;;;;;;12.57;10.25;;;;;;;9.79;56.86;101335.16;4991659;28;102674;-48
2022/03/25 07:45:21;;;;;;;12.93;10.10;;;;;;;9.81;57.20;101337.66;4971842;28;104289;-49
2022/03/25 07:47:49;;;;;;;10.25;9.02;;;;;;;9.80;57.05;101328.63;4971113;28;101907;-49
2022/03/25 07:50:18;;;;;;;11.70;9.50;;;;;;;9.80;56.41;101328.63;4971000;28;101862;-49
2022/03/25 07:52:46;;;;;;;10.48;9.18;;;;;;;9.83;57.33;101330.84;4971507;28;102184;-48
2022/03/25 07:55:15;;;;;;;12.17;9.10;;;;;;;9.83;56.66;101325.44;4971088;28;103989;-48
2022/03/25 07:57:42;;;;;;;12.48;9.57;;;;;;;9.85;56.86;101333.34;4987746;28;102346;-49
2022/03/25 08:00:11;;;;;;;12.05;9.70;;;;;;;9.83;56.63;101339.00;4992992;28;102662;-48
2022/03/25 08:02:38;;;;;;;11.35;9.48;;;;;;;9.84;56.84;101335.25;4996428;28;102607;-48
2022/03/25 08:05:09;;;;;;;11.77;9.68;;;;;;;9.86;56.72;101343.97;4994313;28;104217;-49
2022/03/25 08:07:43;;;;;;;12.48;10.30;;;;;;;9.84;57.14;101346.13;4992913;28;102064;-48
2022/03/25 08:10:11;;;;;;;12.85;10.38;;;;;;;9.85;56.83;101345.03;4989097;28;102417;-48
2022/03/25 08:12:38;;;;;;;12.75;10.82;;;;;;;9.84;56.47;101343.41;4994647;28;102460;-48
2022/03/25 08:15:07;;;;;;;12.52;10.45;;;;;;;9.84;56.91;101348.84;4993395;28;103923;-48
2022/03/25 08:17:46;;;;;;;;;;;;;;;9.84;56.77;101348.84;4996703;28;101934;-48
2022/03/25 08:20:19;;;;;;;11.27;9.82;;;;;;;9.85;57.01;101345.03;4997102;28;102384;-48
2022/03/25 08:22:46;;;;;;;12.85;10.38;;;;;;;9.84;56.39;101348.84;4994316;28;102186;-48
2022/03/25 08:28:01;;;;;;;12.20;9.80;;;;;;;9.85;56.55;101344.22;4993536;28;102402;-49
2022/03/25 08:30:29;;;;;;;13.18;10.57;;;;;;;9.85;56.29;101347.75;4993377;28;102382;-49
2022/03/25 08:32:57;;;;;;;12.98;10.40;;;;;;;9.86;56.22;101360.28;4981332;28;102461;-48
2022/03/25 08:35:25;;;;;;;11.90;9.82;;;;;;;9.86;56.97;101352.13;4990169;28;103892;-48
2022/03/25 08:37:53;;;;;;;11.93;10.07;;;;;;;9.86;56.08;101346.69;4994605;28;102576;-49
2022/03/25 08:40:20;;;;;;;12.90;10.30;;;;;;;9.86;56.56;101351.28;4987577;28;102247;-48
2022/03/25 08:42:47;;;;;;;12.43;10.10;;;;;;;9.86;56.30;101352.13;4993709;28;102258;-48
2022/03/25 08:45:15;;;;;;;12.48;9.95;;;;;;;9.87;56.83;101353.75;4992889;28;103846;-49
2022/03/25 08:47:42;;;;;;;13.95;10.23;;;;;;;9.85;56.72;101349.66;4993367;28;102429;-48
2022/03/25 08:50:12;;;;;;;11.93;10.48;;;;;;;9.86;55.99;101352.13;4993115;28;102025;-49
2022/03/25 08:52:39;;;;;;;12.20;9.88;;;;;;;9.86;56.18;101352.13;4994348;28;101962;-49
2022/03/25 08:55:09;;;;;;;14.13;10.73;;;;;;;9.86;55.85;101354.84;4992591;28;104018;-49
2022/03/25 08:57:36;;;;;;;12.68;10.57;;;;;;;9.84;55.63;101354.28;4990656;28;102092;-49
2022/03/25 09:00:05;;;;;;;12.17;10.13;;;;;;;9.85;56.17;101350.47;4986378;28;102786;-49
2022/03/25 09:02:32;;;;;;;12.05;10.13;;;;;;;9.84;56.13;101348.84;4981239;28;102120;-49
2022/03/25 09:05:00;;;;;;;11.60;9.82;;;;;;;9.85;56.22;101346.94;4974415;28;103847;-49
2022/03/25 09:07:29;;;;;;;14.95;9.80;;;;;;;9.85;56.25;101350.47;4989119;28;102150;-48
2022/03/25 09:09:56;;;;;;;11.98;10.38;;;;;;;9.84;56.45;101354.28;4989621;28;102309;-49
2022/03/25 09:12:23;;;;;;;12.75;10.80;;;;;;;9.85;56.01;101355.91;4992482;28;102174;-48
2022/03/25 09:14:59;;;;;;;13.40;10.43;;;;;;;9.85;55.94;101355.91;4984788;28;104074;-49
2022/03/25 09:17:26;;;;;;;13.50;10.30;;;;;;;9.84;55.72;101351.56;4991573;28;102205;-49
2022/03/25 09:19:54;;;;;;;12.65;10.25;;;;;;;9.85;55.41;101350.47;4989685;28;102066;-49
2022/03/25 09:22:21;;;;;;;11.90;9.95;;;;;;;9.86;55.48;101357.56;4993299;28;102690;-49
2022/03/25 09:24:49;;;;;;;13.65;10.30;;;;;;;9.86;56.47;101363.00;4990839;28;103948;-49
2022/03/25 09:27:16;;;;;;;11.40;10.10;;;;;;;9.86;56.03;101357.56;4976689;28;102367;-48
2022/03/25 09:29:45;;;;;;;12.00;9.57;;;;;;;9.87;55.87;101359.19;4972617;28;102307;-49
2022/03/25 09:32:12;;;;;;;12.13;9.93;;;;;;;9.89;55.97;101352.69;4979106;28;102355;-49
2022/03/25 09:37:23;;;;;;;11.70;9.80;;;;;;;9.91;56.06;101358.69;4988348;28;101981;-48
2022/03/25 09:39:52;;;;;;;12.10;10.50;;;;;;;9.91;56.36;101355.97;4987036;28;102497;-48
2022/03/25 09:42:19;;;;;;;12.30;10.20;;;;;;;9.90;56.45;101352.44;4990513;28;102781;-49
2022/03/25 09:44:46;;;;;;;11.82;9.70;;;;;;;9.91;56.42;101364.13;4990260;28;104642;-48
2022/03/25 09:47:22;;;;;;;12.25;10.43;;;;;;;9.91;56.12;101364.13;4988912;28;102004;-48
2022/03/25 09:49:48;;;;;;;13.50;11.43;;;;;;;9.90;56.06;101371.47;4989435;28;102798;-49
2022/03/25 09:52:18;;;;;;;13.63;10.13;;;;;;;9.89;55.78;101366.28;4991050;28;102659;-49
2022/03/25 09:54:47;;;;;;;15.65;10.68;;;;;;;9.90;55.47;101365.22;4990678;28;103378;-48
2022/03/25 09:57:15;;;;;;;13.07;10.40;;;;;;;9.90;55.68;101367.94;4979973;28;103289;-48
2022/03/25 09:59:46;;;;;;;11.80;9.85;;;;;;;9.89;55.66;101367.13;4990908;28;102426;-48
2022/03/25 10:02:13;;;;;;;11.65;9.88;;;;;;;9.90;55.42;101357.06;4993018;28;102426;-49
2022/03/25 10:04:42;;;;;;;11.75;9.90;;;;;;;9.90;55.14;101368.75;5004920;28;104092;-49
2022/03/25 10:07:17;;;;;;;12.70;10.48;;;;;;;9.91;56.15;101369.56;4989531;28;102190;-48
2022/03/25 10:09:45;;;;;;;12.20;10.25;;;;;;;9.90;55.51;101368.75;4996801;28;102032;-49
2022/03/25 10:12:24;;;;;;;12.30;10.30;;;;;;;9.90;55.62;101373.38;4993029;28;102606;-48
2022/03/25 10:15:13;;;;;;;13.18;10.05;;;;;;;9.90;55.94;101373.38;4990682;28;104207;-49
2022/03/25 10:17:52;;;;;;;12.18;9.90;;;;;;;9.90;55.33;101362.50;4982351;28;102398;-49
2022/03/25 10:20:20;;;;;;;;;;;;;;;9.90;55.18;101362.50;4988317;28;102077;-49
2022/03/25 10:23:02;;;;;;;;;;;;;;;9.89;55.92;101367.13;4982681;28;102194;-49
2022/03/25 10:25:55;;;;;;;10.30;9.23;;;;;;;9.91;55.75;101369.56;4972639;28;104144;-49
2022/03/25 10:28:27;;;;;;;12.25;9.70;;;;;;;9.92;54.92;101382.06;4978572;28;102491;-49
2022/03/25 10:30:59;;;;;;;11.63;9.48;;;;;;;9.91;55.27;101380.44;4973803;28;102372;-50
2022/03/25 10:33:29;;;;;;;11.95;9.93;;;;;;;9.91;55.45;101388.59;4988080;28;101933;-49
2022/03/25 10:36:02;;;;;;;11.15;9.45;;;;;;;9.92;55.32;101387.50;4971377;28;104071;-48
2022/03/25 10:38:43;;;;;;;11.73;9.98;;;;;;;9.90;55.20;101393.22;4971422;28;102298;-49
2022/03/25 10:41:12;;;;;;;13.35;11.00;;;;;;;9.91;54.63;101397.56;4986470;28;102444;-49
2022/03/25 10:43:53;;;;;;;13.47;11.23;;;;;;;9.90;54.75;101411.44;4972232;28;102655;-48
2022/03/25 10:46:35;;;;;;;16.25;12.02;;;;;;;9.90;54.61;101411.44;4977870;28;103892;-48
2022/03/25 10:49:05;;;;;;;19.20;11.98;;;;;;;9.89;54.65;101415.22;4990620;28;102454;-48
2022/03/25 10:51:33;;;;;;;21.30;12.98;;;;;;;9.89;54.51;101428.81;4991044;28;101862;-48
2022/03/25 10:54:02;;;;;;;17.02;12.65;;;;;;;9.87;53.96;101424.44;4991899;28;102372;-48
2022/03/25 10:56:42;;;;;;;17.35;12.15;;;;;;;9.87;54.49;101435.31;4990818;28;103533;-49
2022/03/25 10:59:21;;;;;;;15.57;11.88;;;;;;;9.86;54.44;101441.00;4991272;28;102314;-48
2022/03/25 11:01:50;;;;;;;14.90;12.23;;;;;;;9.86;53.79;101439.09;4970885;28;102264;-49
2022/03/25 11:04:17;;;;;;;16.95;12.27;;;;;;;9.85;54.47;101442.91;4972466;28;102522;-49
2022/03/25 11:06:45;;;;;;;17.42;12.13;;;;;;;9.85;54.31;101444.81;4970654;28;103870;-48
2022/03/25 11:09:13;;;;;;;14.80;12.20;;;;;;;9.84;54.24;101446.72;4971495;28;103396;-49
2022/03/25 11:11:41;;;;;;;13.90;11.18;;;;;;;9.84;54.10;101441.28;4986879;28;102531;-48
2022/03/25 11:14:11;;;;;;;17.25;11.68;;;;;;;9.83;54.13;101445.03;4983503;28;102692;-49
2022/03/25 11:16:42;;;;;;;14.07;11.52;;;;;;;9.83;53.74;101449.66;4982918;28;104109;-48
2022/03/25 11:19:13;;;;;;;16.33;11.25;;;;;;;9.83;54.21;101449.66;4988139;28;102352;-48
2022/03/25 11:21:42;;;;;;;16.58;11.15;;;;;;;9.83;54.39;101450.47;4971518;28;102474;-48
2022/03/25 11:24:16;;;;;;;14.30;11.20;;;;;;;9.81;54.23;101455.34;4988179;28;103075;-48
2022/03/25 11:26:48;;;;;;;15.15;10.95;;;;;;;9.82;54.05;101458.91;4980871;28;103964;-48
2022/03/25 11:29:20;;;;;;;16.50;10.95;;;;;;;9.80;54.62;101459.13;4985172;28;101976;-49
2022/03/25 11:32:08;;;;;;;13.27;10.25;;;;;;;9.81;54.88;101465.41;4987448;28;103004;-48